createdAt,value
2023-04-19T00:01:40.673Z,53
2023-04-19T00:06:47.408Z,53
2023-04-19T00:11:54.172Z,53
2023-04-19T00:17:00.906Z,53
2023-04-19T00:22:07.588Z,53
2023-04-19T00:27:14.334Z,52
2023-04-19T00:32:21.103Z,52
2023-04-19T00:37:27.813Z,53
2023-04-19T00:42:34.726Z,52
2023-04-19T00:47:41.305Z,52
2023-04-19T00:52:48.054Z,52
2023-04-19T00:57:54.773Z,52
2023-04-19T01:03:02.922Z,52
2023-04-19T01:08:09.481Z,52
2023-04-19T01:13:16.209Z,52
2023-04-19T01:18:22.940Z,51
2023-04-19T01:23:29.700Z,51
2023-04-19T01:28:36.431Z,51
2023-04-19T01:33:43.144Z,51
2023-04-19T01:38:49.884Z,51
2023-04-19T01:43:56.594Z,51
2023-04-19T01:49:03.357Z,51
2023-04-19T01:54:10.123Z,51
2023-04-19T01:59:16.874Z,51
2023-04-19T02:04:23.603Z,51
2023-04-19T02:09:30.320Z,51
2023-04-19T02:14:38.318Z,51
2023-04-19T02:19:45.038Z,51
2023-04-19T02:24:51.765Z,51
2023-04-19T02:29:58.502Z,51
2023-04-19T02:35:05.276Z,51
2023-04-19T02:40:11.977Z,51
2023-04-19T02:45:18.726Z,51
2023-04-19T02:50:25.453Z,51
2023-04-19T02:55:32.204Z,51
2023-04-19T03:00:38.941Z,51
2023-04-19T03:05:45.690Z,51
2023-04-19T03:10:52.408Z,51
2023-04-19T03:15:59.225Z,51
2023-04-19T03:21:05.873Z,51
2023-04-19T03:26:12.625Z,51
2023-04-19T03:31:19.365Z,51
2023-04-19T03:36:26.089Z,51
2023-04-19T03:41:32.810Z,52
2023-04-19T03:46:39.659Z,52
2023-04-19T03:51:46.300Z,52
2023-04-19T03:56:53.064Z,52
2023-04-19T04:01:59.916Z,52
2023-04-19T04:07:06.531Z,52
2023-04-19T04:12:13.261Z,52
2023-04-19T04:17:20.059Z,52
2023-04-19T04:22:26.705Z,52
2023-04-19T04:27:33.497Z,53
2023-04-19T04:32:40.272Z,53
2023-04-19T04:37:48.169Z,53
2023-04-19T04:42:54.941Z,53
2023-04-19T04:48:01.701Z,54
2023-04-19T04:53:08.442Z,54
2023-04-19T04:58:15.160Z,54
2023-04-19T05:03:21.936Z,54
2023-04-19T05:08:28.618Z,54
2023-04-19T05:13:35.356Z,54
2023-04-19T05:18:42.104Z,54
2023-04-19T05:23:48.917Z,54
2023-04-19T05:28:55.570Z,54
2023-04-19T05:34:02.335Z,54
2023-04-19T05:39:09.060Z,54
2023-04-19T05:44:15.983Z,54
2023-04-19T05:49:23.769Z,53
2023-04-19T05:54:30.516Z,53
2023-04-19T05:59:37.288Z,54
2023-04-19T06:04:44.266Z,53
2023-04-19T06:09:50.719Z,54
2023-04-19T06:14:57.478Z,54
2023-04-19T06:20:04.203Z,54
2023-04-19T06:25:10.923Z,54
2023-04-19T06:30:18.706Z,54
2023-04-19T06:35:24.413Z,54
2023-04-19T06:40:31.150Z,54
2023-04-19T06:45:37.916Z,54
2023-04-19T06:50:44.658Z,54
2023-04-19T06:55:51.354Z,54
2023-04-19T07:00:58.144Z,54
2023-04-19T07:06:04.850Z,54
2023-04-19T07:11:11.756Z,53
2023-04-19T07:16:18.364Z,54
2023-04-19T07:21:25.043Z,53
2023-04-19T07:31:38.651Z,54
2023-04-19T07:36:45.256Z,54
2023-04-19T07:41:52.021Z,55
2023-04-19T07:46:58.922Z,54
2023-04-19T07:52:05.489Z,54
2023-04-19T07:57:12.203Z,55
2023-04-19T08:02:19.124Z,55
2023-04-19T08:07:25.689Z,55
2023-04-19T08:12:38.586Z,55
2023-04-19T08:17:42.273Z,55
2023-04-19T08:22:47.145Z,55
2023-04-19T08:27:53.912Z,56
2023-04-19T08:33:00.685Z,55
2023-04-19T08:38:07.372Z,55
2023-04-19T08:43:14.139Z,55
2023-04-19T08:48:20.888Z,55
2023-04-19T08:53:27.574Z,55
2023-04-19T08:58:51.925Z,54
2023-04-19T09:03:51.496Z,56
2023-04-19T09:08:47.804Z,57
2023-04-19T09:13:54.513Z,58
2023-04-19T09:19:15.243Z,58
2023-04-19T09:24:07.989Z,58
2023-04-19T09:29:15.249Z,57
2023-04-19T09:34:21.471Z,58
2023-04-19T09:39:28.213Z,59
2023-04-19T09:45:12.476Z,58
2023-04-19T09:49:48.950Z,57
2023-04-19T09:54:48.413Z,56
2023-04-19T09:59:55.149Z,55
2023-04-19T10:05:19.691Z,56
2023-04-19T10:10:19.111Z,55
2023-04-19T10:15:15.412Z,54
2023-04-19T10:20:22.132Z,52
2023-04-19T10:25:28.863Z,51
2023-04-19T10:30:35.527Z,51
2023-04-19T10:35:43.593Z,51
2023-04-19T10:40:50.293Z,50
2023-04-19T10:45:57.094Z,50
2023-04-19T10:51:03.806Z,50
2023-04-19T10:56:10.565Z,49
2023-04-19T11:01:17.308Z,49
2023-04-19T11:11:30.746Z,49
2023-04-19T11:16:45.452Z,48
2023-04-19T11:21:44.222Z,48
2023-04-19T11:26:52.686Z,47
2023-04-19T11:31:57.696Z,47
2023-04-19T11:37:04.434Z,46
2023-04-19T11:42:11.144Z,45
2023-04-19T11:47:18.115Z,46
2023-04-19T11:52:24.653Z,46
2023-04-19T11:57:31.406Z,46
2023-04-19T12:02:38.343Z,46
2023-04-19T12:07:44.865Z,46
2023-04-19T12:12:52.816Z,45
2023-04-19T12:17:59.599Z,45
2023-04-19T12:23:06.276Z,44
2023-04-19T12:28:13.007Z,44
2023-04-19T12:33:20.776Z,44
2023-04-19T12:38:26.508Z,45
2023-04-19T12:43:33.227Z,45
2023-04-19T12:48:40.036Z,45
2023-04-19T12:53:46.680Z,45
2023-04-19T12:58:53.423Z,45
2023-04-19T13:04:00.459Z,44
2023-04-19T13:09:14.289Z,44
2023-04-19T13:14:13.653Z,44
2023-04-19T13:19:20.397Z,44
2023-04-19T13:24:27.119Z,44
2023-04-19T13:29:33.844Z,44
2023-04-19T13:34:40.567Z,44
2023-04-19T13:39:47.327Z,44
2023-04-19T13:44:54.043Z,44
2023-04-19T13:50:00.814Z,44
2023-04-19T13:55:07.536Z,43
2023-04-19T14:00:14.256Z,44
2023-04-19T14:05:20.982Z,44
2023-04-19T14:10:27.750Z,44
2023-04-19T14:15:34.447Z,44
2023-04-19T14:20:41.206Z,44
2023-04-19T14:30:54.702Z,44
2023-04-19T14:36:01.423Z,44
2023-04-19T14:41:08.127Z,44
2023-04-19T14:46:14.944Z,43
2023-04-19T14:51:21.602Z,44
2023-04-19T14:56:29.575Z,44
2023-04-19T15:01:36.315Z,43
2023-04-19T15:06:43.196Z,43
2023-04-19T15:11:49.781Z,43
2023-04-19T15:16:56.508Z,43
2023-04-19T15:22:03.264Z,43
2023-04-19T15:27:10.007Z,43
2023-04-19T15:32:16.734Z,43
2023-04-19T15:37:23.452Z,42
2023-04-19T15:42:30.180Z,42
2023-04-19T15:47:36.925Z,42
2023-04-19T15:52:43.646Z,42
2023-04-19T15:57:50.375Z,42
2023-04-19T16:02:57.255Z,42
2023-04-19T16:08:03.850Z,43
2023-04-19T16:13:10.599Z,44
2023-04-19T16:18:17.336Z,45
2023-04-19T16:23:24.059Z,45
2023-04-19T16:28:30.812Z,46
2023-04-19T16:33:37.537Z,47
2023-04-19T16:38:44.281Z,48
2023-04-19T16:43:50.986Z,49
2023-04-19T16:48:57.732Z,49
2023-04-19T16:54:04.494Z,49
2023-04-19T16:59:11.202Z,51
2023-04-19T17:04:18.129Z,51
2023-04-19T17:09:24.685Z,52
2023-04-19T17:14:31.394Z,53
2023-04-19T17:19:38.147Z,53
2023-04-19T17:24:44.904Z,54
2023-04-19T17:29:51.615Z,55
2023-04-19T17:34:58.376Z,56
2023-04-19T17:45:13.078Z,56
2023-04-19T17:50:19.789Z,57
2023-04-19T17:55:26.547Z,58
2023-04-19T18:00:33.279Z,59
2023-04-19T18:05:40.025Z,59
2023-04-19T18:10:47.964Z,59
2023-04-19T18:15:54.901Z,60
2023-04-19T18:21:01.445Z,60
2023-04-19T18:26:08.165Z,61
2023-04-19T18:31:14.905Z,61
2023-04-19T18:36:21.641Z,61
2023-04-19T18:41:28.380Z,61
2023-04-19T18:46:35.114Z,61
2023-04-19T18:51:41.864Z,61
2023-04-19T18:57:21.204Z,61
2023-04-19T19:01:55.344Z,61
2023-04-19T19:07:14.226Z,62
2023-04-19T19:12:08.796Z,62
2023-04-19T19:17:15.890Z,62
2023-04-19T19:22:28.246Z,63
2023-04-19T19:27:29.276Z,64
2023-04-19T19:32:35.765Z,65
2023-04-19T19:37:42.514Z,66
2023-04-19T19:42:49.208Z,66
2023-04-19T19:47:56.094Z,66
2023-04-19T19:53:02.741Z,67
2023-04-19T19:58:35.367Z,66
2023-04-19T20:03:28.523Z,67
2023-04-19T20:08:23.682Z,66
2023-04-19T20:13:29.654Z,66
2023-04-19T20:18:36.367Z,67
2023-04-19T20:23:43.104Z,67
2023-04-19T20:28:49.857Z,67
2023-04-19T20:33:56.609Z,67
2023-04-19T20:39:04.917Z,67
2023-04-19T20:44:10.083Z,67
2023-04-19T20:49:18.194Z,67
2023-04-19T20:54:24.841Z,67
2023-04-19T20:59:31.499Z,67
2023-04-19T21:04:38.299Z,66
2023-04-19T21:09:44.977Z,67
2023-04-19T21:14:51.711Z,66
2023-04-19T21:19:58.466Z,66
2023-04-19T21:25:05.199Z,66
2023-04-19T21:30:11.929Z,66
2023-04-19T21:35:18.675Z,66
2023-04-19T21:40:25.395Z,66
2023-04-19T21:45:32.168Z,66
2023-04-19T21:50:38.904Z,66
2023-04-19T21:55:45.599Z,65
2023-04-19T22:00:52.412Z,65
2023-04-19T22:05:59.095Z,64
2023-04-19T22:11:05.832Z,64
2023-04-19T22:16:12.624Z,64
2023-04-19T22:21:19.302Z,64
2023-04-19T22:26:26.109Z,64
2023-04-19T22:31:32.922Z,64
2023-04-19T22:36:39.542Z,64
2023-04-19T22:41:46.275Z,64
2023-04-19T22:46:52.978Z,64
2023-04-19T22:51:59.730Z,64
2023-04-19T22:57:06.495Z,64
2023-04-19T23:02:13.248Z,64
2023-04-19T23:07:19.996Z,65
2023-04-19T23:12:26.678Z,65
2023-04-19T23:17:33.534Z,65
2023-04-19T23:22:40.187Z,65
2023-04-19T23:27:46.923Z,66
2023-04-19T23:32:53.711Z,66
2023-04-19T23:38:00.383Z,66
2023-04-19T23:43:07.127Z,67
2023-04-19T23:48:13.864Z,68
2023-04-19T23:53:20.610Z,68
2023-04-19T23:58:27.361Z,69
